Time;durP1;ratioP1;P1;durP2;ratioP2;P2;SDS_P1;SDS_P2;PMS_P1;PMS_P2;Temp;Humidity;BMP_temperature;BMP_pressure;BME280_temperature;BME280_humidity;BME280_pressure;Samples;Min_cycle;Max_cycle;Signal;HPM_P1;HPM_P2
2023/12/27 01:52:39;;;;;;;5.15;1.67;;;;;;;;;;4821961;29;20115;-80
2023/12/27 01:55:30;;;;;;;4.60;2.50;;;;;;;;;;4816369;29;20093;-80
2023/12/27 02:01:35;;;;;;;;;;;;;;;;;;;;;
2023/12/27 02:09:51;;;;;;;5.28;2.20;;;;;;;;;;4816806;29;20062;-80
2023/12/27 02:13:01;;;;;;;;;;;;;;;;;;;;;
2023/12/27 02:22:47;;;;;;;;;;;;;;;;;;;;;
2023/12/27 02:25:52;;;;;;;5.03;3.40;;;;;;;;;;4694902;30;20106;-80
2023/12/27 08:51:02;;;;;;;3.97;2.08;;;;;;;;;;4812620;29;20061;-79
2023/12/27 08:53:43;;;;;;;3.53;2.08;;;;;;;;;;4817385;29;20038;-78
2023/12/27 09:17:16;;;;;;;;;;;;;;;;;;;;;
2023/12/27 09:26:20;;;;;;;9.52;3.92;;;;;;;;;;4746809;30;20043;-80
2023/12/27 09:35:23;;;;;;;5.53;3.28;;;;;;;;;;4695919;30;20056;-80
2023/12/27 09:41:37;;;;;;;;;;;;;;;;;;;;;
2023/12/27 09:47:47;;;;;;;13.18;7.32;;;;;;;;;;4809076;29;20860;-80
2023/12/27 09:50:55;;;;;;;;;;;;;;;;;;;;;
2023/12/27 09:53:51;;;;;;;10.13;3.90;;;;;;;;;;4755721;30;20064;-79
2023/12/27 09:56:45;;;;;;;12.45;4.18;;;;;;;;;;4755915;30;20434;-79
2023/12/27 09:59:26;;;;;;;8.32;3.67;;;;;;;;;;4749339;30;20063;-79
2023/12/27 10:02:02;;;;;;;4.15;2.78;;;;;;;;;;4754686;30;20409;-79
2023/12/27 10:05:02;;;;;;;12.27;3.40;;;;;;;;;;4763098;30;20399;-79
2023/12/27 10:11:11;;;;;;;11.57;3.80;;;;;;;;;;4701522;30;20048;-79
2023/12/27 10:14:06;;;;;;;10.48;4.05;;;;;;;;;;4711545;30;20075;-79
2023/12/27 11:16:28;;;;;;;10.85;3.45;;;;;;;;;;4803082;29;20143;-80
2023/12/27 11:18:55;;;;;;;15.45;4.05;;;;;;;;;;4802816;29;20059;-81
2023/12/27 11:21:21;;;;;;;16.58;6.22;;;;;;;;;;4803392;29;20091;-81
2023/12/27 11:23:47;;;;;;;14.55;7.75;;;;;;;;;;4798797;29;20760;-79
2023/12/27 11:26:14;;;;;;;18.70;7.10;;;;;;;;;;4802026;29;20039;-81
2023/12/27 11:28:41;;;;;;;13.85;6.13;;;;;;;;;;4806258;29;20058;-80
2023/12/27 11:31:08;;;;;;;18.95;4.35;;;;;;;;;;4802757;29;20038;-81
2023/12/27 11:33:35;;;;;;;13.68;3.10;;;;;;;;;;4802923;29;20047;-81
2023/12/27 11:36:02;;;;;;;3.30;2.42;;;;;;;;;;4803334;29;20705;-81
2023/12/27 11:38:29;;;;;;;15.70;2.17;;;;;;;;;;4809243;29;20848;-82
2023/12/27 11:41:00;;;;;;;6.88;3.42;;;;;;;;;;4803354;29;20043;-81
2023/12/27 11:43:27;;;;;;;6.55;3.42;;;;;;;;;;4800635;29;20043;-82
2023/12/27 11:45:57;;;;;;;6.25;2.47;;;;;;;;;;4809812;29;20100;-82
2023/12/27 11:48:24;;;;;;;4.68;1.98;;;;;;;;;;4801775;29;20485;-81
2023/12/27 11:50:50;;;;;;;3.33;1.02;;;;;;;;;;4806562;29;20392;-81
2023/12/27 11:53:18;;;;;;;4.57;2.38;;;;;;;;;;4802771;29;20122;-82
2023/12/27 11:55:46;;;;;;;1.30;1.13;;;;;;;;;;4796961;29;20135;-80
2023/12/27 11:58:14;;;;;;;4.45;2.08;;;;;;;;;;4804424;29;20051;-81
2023/12/27 12:00:40;;;;;;;4.20;1.52;;;;;;;;;;4805691;29;20061;-80
2023/12/27 12:03:13;;;;;;;2.92;1.52;;;;;;;;;;4809508;29;20042;-81
2023/12/27 12:05:39;;;;;;;;;;;;;;;;;;4809946;29;20485;-81
2023/12/27 12:08:29;;;;;;;7.25;2.58;;;;;;;;;;4803660;29;19933;-85
2023/12/27 12:11:06;;;;;;;2.20;1.27;;;;;;;;;;4791253;29;20657;-86
2023/12/27 12:13:33;;;;;;;2.28;1.35;;;;;;;;;;4794420;29;20402;-79
2023/12/27 12:15:59;;;;;;;3.45;1.58;;;;;;;;;;4809664;29;20178;-80
2023/12/27 12:18:26;;;;;;;2.67;1.48;;;;;;;;;;4779795;29;20620;-79
2023/12/27 12:20:52;;;;;;;2.92;2.15;;;;;;;;;;4786181;29;20509;-79
2023/12/27 12:23:18;;;;;;;1.73;1.00;;;;;;;;;;4802203;29;20406;-79
2023/12/27 12:25:44;;;;;;;4.47;2.30;;;;;;;;;;4800771;29;20047;-80
2023/12/27 12:28:10;;;;;;;2.88;0.90;;;;;;;;;;4811137;29;20054;-79
2023/12/27 12:30:37;;;;;;;1.60;1.00;;;;;;;;;;4787650;29;20768;-80
2023/12/27 12:33:06;;;;;;;1.45;1.00;;;;;;;;;;4787570;29;20130;-80
2023/12/27 12:49:24;;;;;;;7.60;1.70;;;;;;;;;;4121427;27;20417;-79
2023/12/27 12:51:52;;;;;;;2.30;1.08;;;;;;;;;;4799910;29;20078;-79
2023/12/27 12:54:20;;;;;;;3.42;1.23;;;;;;;;;;4807184;29;20050;-80
2023/12/27 12:57:07;;;;;;;4.90;1.13;;;;;;;;;;4822895;29;20046;-80
2023/12/27 12:59:46;;;;;;;1.95;0.80;;;;;;;;;;4821919;29;20096;-81
2023/12/27 13:02:56;;;;;;;5.15;1.77;;;;;;;;;;4818085;29;20088;-80
2023/12/27 13:13:59;;;;;;;8.25;3.55;;;;;;;;;;1381061;27;20434;-79
2023/12/27 13:16:25;;;;;;;2.72;1.52;;;;;;;;;;4808366;29;20121;-78
2023/12/27 13:18:52;;;;;;;2.33;1.52;;;;;;;;;;4800546;29;20117;-78
2023/12/27 13:21:19;;;;;;;2.05;1.52;;;;;;;;;;4778201;29;20039;-79
2023/12/27 13:23:45;;;;;;;5.68;2.53;;;;;;;;;;4772891;29;20051;-79
2023/12/27 13:26:16;;;;;;;3.55;1.83;;;;;;;;;;4779438;29;20070;-79
2023/12/27 13:28:42;;;;;;;2.28;1.20;;;;;;;;;;4787882;29;20105;-79
2023/12/27 13:31:08;;;;;;;9.10;3.65;;;;;;;;;;4796033;29;20115;-79
2023/12/27 13:33:35;;;;;;;4.78;2.28;;;;;;;;;;4804092;29;20054;-79
2023/12/27 13:36:01;;;;;;;14.10;2.63;;;;;;;;;;4815069;29;20470;-79
2023/12/27 13:38:27;;;;;;;1.67;1.00;;;;;;;;;;4789585;29;20039;-80
2023/12/27 13:40:54;;;;;;;6.53;1.55;;;;;;;;;;4794679;29;20051;-79
2023/12/27 13:43:20;;;;;;;2.80;1.55;;;;;;;;;;4793128;29;20768;-83
2023/12/27 13:45:46;;;;;;;4.18;1.75;;;;;;;;;;4803594;29;20061;-78
2023/12/27 13:48:12;;;;;;;2.47;0.88;;;;;;;;;;4800682;29;20052;-80
2023/12/27 13:50:38;;;;;;;1.55;1.17;;;;;;;;;;4779653;30;20059;-78
2023/12/27 13:53:04;;;;;;;2.65;1.40;;;;;;;;;;4802476;29;20042;-80
2023/12/27 13:55:31;;;;;;;1.83;0.93;;;;;;;;;;4788001;29;20059;-80
2023/12/27 13:57:57;;;;;;;1.45;0.80;;;;;;;;;;4804571;29;20043;-79
2023/12/27 14:00:23;;;;;;;1.55;0.35;;;;;;;;;;4788173;29;20043;-80
2023/12/27 14:02:49;;;;;;;1.48;1.02;;;;;;;;;;4803245;29;20045;-79
2023/12/27 14:05:16;;;;;;;4.70;1.63;;;;;;;;;;4796083;29;20050;-77
2023/12/27 14:07:42;;;;;;;10.90;1.85;;;;;;;;;;4787335;29;20440;-77
2023/12/27 14:10:08;;;;;;;2.08;1.55;;;;;;;;;;4789830;29;20051;-80
2023/12/27 14:12:41;;;;;;;3.75;1.40;;;;;;;;;;4787920;29;20093;-80
2023/12/27 14:15:07;;;;;;;2.40;1.27;;;;;;;;;;4807325;29;20062;-80
2023/12/27 14:17:33;;;;;;;2.28;1.67;;;;;;;;;;4804479;29;20073;-80
2023/12/27 14:19:59;;;;;;;5.50;2.38;;;;;;;;;;4787579;29;20406;-79
2023/12/27 14:22:25;;;;;;;2.05;1.10;;;;;;;;;;4786189;29;20146;-78
2023/12/27 14:24:51;;;;;;;3.67;1.60;;;;;;;;;;4779756;29;20053;-78
2023/12/27 14:27:17;;;;;;;2.95;1.25;;;;;;;;;;4780152;29;20523;-78
2023/12/27 14:29:43;;;;;;;5.13;1.75;;;;;;;;;;4782481;29;20149;-78
2023/12/27 14:32:09;;;;;;;7.55;2.45;;;;;;;;;;4797016;29;20053;-78
2023/12/27 14:34:35;;;;;;;3.63;2.45;;;;;;;;;;4793666;29;20131;-79
2023/12/27 14:37:02;;;;;;;11.27;3.25;;;;;;;;;;4803821;29;20050;-79
2023/12/27 14:39:30;;;;;;;3.45;1.80;;;;;;;;;;4792912;29;20145;-79
2023/12/27 14:41:56;;;;;;;3.70;2.30;;;;;;;;;;4789240;29;20488;-78
2023/12/27 14:44:22;;;;;;;4.93;2.55;;;;;;;;;;4797158;29;20043;-80
2023/12/27 14:46:48;;;;;;;13.98;3.92;;;;;;;;;;4787241;29;20108;-77
2023/12/27 14:49:14;;;;;;;2.92;1.63;;;;;;;;;;4795684;29;20038;-79
2023/12/27 14:51:40;;;;;;;7.68;1.50;;;;;;;;;;4784007;30;20474;-81
2023/12/27 14:54:08;;;;;;;4.05;2.30;;;;;;;;;;4805011;29;20054;-79
2023/12/27 14:56:34;;;;;;;7.72;1.50;;;;;;;;;;4783647;30;20494;-78
2023/12/27 14:59:00;;;;;;;2.97;1.67;;;;;;;;;;4782668;29;20047;-78
2023/12/27 15:01:26;;;;;;;3.10;1.80;;;;;;;;;;4789002;29;20046;-79
2023/12/27 15:03:52;;;;;;;2.90;1.52;;;;;;;;;;4787771;29;20042;-78
2023/12/27 15:06:18;;;;;;;9.20;3.60;;;;;;;;;;4786752;29;20051;-80
2023/12/27 15:08:45;;;;;;;5.43;2.70;;;;;;;;;;4793728;29;20042;-79
2023/12/27 15:11:17;;;;;;;11.18;4.15;;;;;;;;;;4793584;29;20051;-81
2023/12/27 15:13:44;;;;;;;5.55;2.70;;;;;;;;;;4783561;29;20043;-80
2023/12/27 15:25:03;;;;;;;4.03;2.28;;;;;;;;;;4814311;29;20054;-80
2023/12/27 15:27:31;;;;;;;1.45;0.60;;;;;;;;;;4774508;30;20230;-81
2023/12/27 15:29:58;;;;;;;1.85;0.93;;;;;;;;;;4782010;30;20131;-82
2023/12/27 15:32:24;;;;;;;2.08;1.17;;;;;;;;;;4768614;30;20070;-81
2023/12/27 15:34:50;;;;;;;2.03;0.80;;;;;;;;;;4780034;30;20047;-81
2023/12/27 15:37:16;;;;;;;1.60;0.82;;;;;;;;;;4771001;30;20050;-80
2023/12/27 15:39:46;;;;;;;7.03;2.15;;;;;;;;;;4767362;30;20054;-81
2023/12/27 15:42:12;;;;;;;9.48;3.80;;;;;;;;;;4783698;30;20049;-80
2023/12/27 15:44:38;;;;;;;2.22;1.42;;;;;;;;;;4783691;30;20047;-82
2023/12/27 15:47:08;;;;;;;6.82;2.42;;;;;;;;;;4784615;30;20474;-82
2023/12/27 15:49:35;;;;;;;7.05;2.08;;;;;;;;;;4768674;30;20055;-82
2023/12/27 15:52:01;;;;;;;2.80;1.88;;;;;;;;;;4784575;30;20490;-82
2023/12/27 15:54:27;;;;;;;3.10;2.35;;;;;;;;;;4766554;30;20081;-80
2023/12/27 15:56:54;;;;;;;4.18;2.30;;;;;;;;;;4771311;30;20495;-81
2023/12/27 15:59:21;;;;;;;4.47;1.92;;;;;;;;;;4799765;29;20130;-79
2023/12/27 16:01:47;;;;;;;2.83;2.00;;;;;;;;;;4821410;29;20048;-80
2023/12/27 16:04:17;;;;;;;4.93;2.40;;;;;;;;;;4805949;29;20034;-80
2023/12/27 16:06:44;;;;;;;9.40;2.70;;;;;;;;;;4806760;29;20042;-81
2023/12/27 16:09:13;;;;;;;13.77;3.25;;;;;;;;;;4824322;29;20046;-80
2023/12/27 16:11:40;;;;;;;17.17;4.45;;;;;;;;;;4825022;29;20073;-80
2023/12/27 16:14:07;;;;;;;7.78;2.67;;;;;;;;;;4825196;29;20608;-80
2023/12/27 16:16:33;;;;;;;11.80;4.15;;;;;;;;;;4823940;29;20068;-80
2023/12/27 16:19:00;;;;;;;6.30;3.13;;;;;;;;;;4819102;29;20085;-80
2023/12/27 16:21:26;;;;;;;11.60;3.50;;;;;;;;;;4824471;29;20050;-80
2023/12/27 16:23:52;;;;;;;4.65;3.15;;;;;;;;;;4808550;29;20477;-80
2023/12/27 16:26:19;;;;;;;8.25;4.45;;;;;;;;;;4825490;29;20046;-79
2023/12/27 16:28:48;;;;;;;6.80;3.97;;;;;;;;;;4828445;29;20073;-83
2023/12/27 16:31:14;;;;;;;10.65;4.60;;;;;;;;;;4814230;29;20038;-80
2023/12/27 16:33:46;;;;;;;7.88;5.35;;;;;;;;;;4830855;29;20073;-86
2023/12/27 16:36:16;;;;;;;7.90;4.15;;;;;;;;;;4787888;29;20076;-82
2023/12/27 16:38:42;;;;;;;10.77;3.67;;;;;;;;;;4784282;29;20063;-81
2023/12/27 16:41:09;;;;;;;17.13;4.57;;;;;;;;;;4806118;29;20559;-81
2023/12/27 16:43:40;;;;;;;9.23;4.53;;;;;;;;;;4782565;29;20054;-82
2023/12/27 16:46:07;;;;;;;13.73;5.18;;;;;;;;;;4801065;29;20035;-82
2023/12/27 16:48:33;;;;;;;9.20;5.95;;;;;;;;;;4808620;29;20405;-82
2023/12/27 16:50:59;;;;;;;9.32;3.85;;;;;;;;;;4805932;29;20043;-80
2023/12/27 16:53:26;;;;;;;6.65;2.85;;;;;;;;;;4804716;29;20058;-82
2023/12/27 16:55:52;;;;;;;5.18;2.72;;;;;;;;;;4780910;29;20050;-78
2023/12/27 16:58:21;;;;;;;3.97;2.53;;;;;;;;;;4793745;29;20166;-80
2023/12/27 17:00:48;;;;;;;7.68;4.53;;;;;;;;;;4796854;29;20047;-79
2023/12/27 17:03:14;;;;;;;5.05;3.63;;;;;;;;;;4798336;29;20035;-83
2023/12/27 17:05:41;;;;;;;7.43;3.00;;;;;;;;;;4791835;29;20082;-80
2023/12/27 17:08:07;;;;;;;11.23;4.80;;;;;;;;;;4805934;29;20039;-80
2023/12/27 17:10:36;;;;;;;12.40;4.10;;;;;;;;;;4805767;29;20039;-81
2023/12/27 17:13:03;;;;;;;8.13;3.63;;;;;;;;;;4789141;29;20096;-80
2023/12/27 17:15:29;;;;;;;8.77;4.30;;;;;;;;;;4805982;29;20045;-81
2023/12/27 17:17:56;;;;;;;16.95;4.22;;;;;;;;;;4793806;29;20482;-80
2023/12/27 17:20:22;;;;;;;8.77;2.50;;;;;;;;;;4793893;29;20434;-81
2023/12/27 17:22:48;;;;;;;7.57;3.53;;;;;;;;;;4794774;29;20137;-81
2023/12/27 17:25:15;;;;;;;9.30;2.80;;;;;;;;;;4811132;29;20079;-81
2023/12/27 17:27:43;;;;;;;10.55;4.57;;;;;;;;;;4805308;29;20520;-81
2023/12/27 17:30:12;;;;;;;5.15;2.58;;;;;;;;;;4789883;29;20050;-81
2023/12/27 17:32:38;;;;;;;19.45;7.07;;;;;;;;;;4805405;29;20046;-81
2023/12/27 17:35:08;;;;;;;12.07;4.80;;;;;;;;;;4806124;29;20078;-81
2023/12/27 17:37:37;;;;;;;10.93;3.88;;;;;;;;;;4805021;29;20096;-80
2023/12/27 17:40:04;;;;;;;11.80;4.43;;;;;;;;;;4780644;29;20405;-80
2023/12/27 17:42:31;;;;;;;6.70;4.40;;;;;;;;;;4805219;29;20043;-81
2023/12/27 17:44:57;;;;;;;9.82;5.43;;;;;;;;;;4803119;29;20047;-80
2023/12/27 17:47:23;;;;;;;7.22;3.63;;;;;;;;;;4803896;29;20050;-80
2023/12/27 17:49:49;;;;;;;10.18;4.25;;;;;;;;;;4799311;29;20046;-81
2023/12/27 17:52:15;;;;;;;7.35;3.42;;;;;;;;;;4804064;29;20035;-80
2023/12/27 17:54:42;;;;;;;8.07;2.38;;;;;;;;;;4794459;29;20411;-78
2023/12/27 17:57:08;;;;;;;6.55;4.72;;;;;;;;;;4806424;29;20047;-79
2023/12/27 17:59:34;;;;;;;10.10;4.47;;;;;;;;;;4799808;29;20051;-79
2023/12/27 18:02:00;;;;;;;11.35;3.10;;;;;;;;;;4807210;29;20039;-79
2023/12/27 18:04:26;;;;;;;7.35;3.10;;;;;;;;;;4809860;29;20038;-80
2023/12/27 18:06:53;;;;;;;5.65;2.83;;;;;;;;;;4794978;29;20046;-81
2023/12/27 18:09:20;;;;;;;10.55;3.95;;;;;;;;;;4805347;29;20054;-81
2023/12/27 18:11:46;;;;;;;11.32;3.83;;;;;;;;;;4798619;29;20043;-81
2023/12/27 18:14:12;;;;;;;12.68;4.50;;;;;;;;;;4777163;29;20050;-80
2023/12/27 18:16:41;;;;;;;6.80;2.63;;;;;;;;;;4789251;29;20043;-80
2023/12/27 18:19:08;;;;;;;12.93;4.90;;;;;;;;;;4805636;29;20046;-80
2023/12/27 18:21:34;;;;;;;5.40;3.10;;;;;;;;;;4790297;29;20569;-81
2023/12/27 18:24:01;;;;;;;7.05;3.83;;;;;;;;;;4805209;29;20058;-81
2023/12/27 18:26:27;;;;;;;7.57;4.00;;;;;;;;;;4810278;29;20143;-80
2023/12/27 18:28:53;;;;;;;8.02;3.47;;;;;;;;;;4800352;29;20058;-80
2023/12/27 18:31:19;;;;;;;15.05;4.88;;;;;;;;;;4805285;29;20500;-81
2023/12/27 18:33:45;;;;;;;10.05;3.17;;;;;;;;;;4791191;29;20051;-81
2023/12/27 18:36:11;;;;;;;4.43;2.15;;;;;;;;;;4799085;29;20100;-80
2023/12/27 18:38:37;;;;;;;6.35;3.70;;;;;;;;;;4789605;29;20047;-80
2023/12/27 18:41:05;;;;;;;6.95;3.20;;;;;;;;;;4789637;29;20055;-81
2023/12/27 18:43:31;;;;;;;10.13;3.85;;;;;;;;;;4806688;29;20075;-82
2023/12/27 18:45:57;;;;;;;9.00;4.03;;;;;;;;;;4808393;29;20583;-82
2023/12/27 18:48:23;;;;;;;5.20;3.53;;;;;;;;;;4823889;29;20046;-80
2023/12/27 18:50:49;;;;;;;8.45;4.13;;;;;;;;;;4805950;29;20055;-80
2023/12/27 18:53:15;;;;;;;8.98;3.95;;;;;;;;;;4803504;29;20085;-81
2023/12/27 18:55:41;;;;;;;7.18;3.17;;;;;;;;;;4805311;29;20126;-81
2023/12/27 18:58:09;;;;;;;5.85;3.30;;;;;;;;;;4805875;29;20043;-80
2023/12/27 19:00:35;;;;;;;12.50;2.42;;;;;;;;;;4805567;29;20041;-82
2023/12/27 19:03:01;;;;;;;8.32;3.42;;;;;;;;;;4806229;29;20385;-82
2023/12/27 19:05:27;;;;;;;7.22;3.97;;;;;;;;;;4787712;29;20038;-83
2023/12/27 19:07:53;;;;;;;7.53;2.63;;;;;;;;;;4799451;29;20043;-83
2023/12/27 19:10:19;;;;;;;9.45;3.15;;;;;;;;;;4799221;29;20035;-83
2023/12/27 19:12:45;;;;;;;11.55;3.42;;;;;;;;;;4805960;29;20054;-82
2023/12/27 19:15:11;;;;;;;6.90;2.50;;;;;;;;;;4801514;29;20071;-82
2023/12/27 19:17:37;;;;;;;9.65;3.10;;;;;;;;;;4792621;29;20050;-82
2023/12/27 19:20:05;;;;;;;9.38;3.55;;;;;;;;;;4805274;29;20104;-82
2023/12/27 19:22:31;;;;;;;9.30;3.45;;;;;;;;;;4803176;29;20174;-82
2023/12/27 19:24:57;;;;;;;7.15;4.15;;;;;;;;;;4803531;29;20095;-82
2023/12/27 19:27:24;;;;;;;7.55;2.58;;;;;;;;;;4787743;29;20039;-82
2023/12/27 19:29:50;;;;;;;8.30;3.92;;;;;;;;;;4788308;29;20047;-82
2023/12/27 19:32:16;;;;;;;9.85;3.35;;;;;;;;;;4805020;29;20039;-82
2023/12/27 19:34:42;;;;;;;15.90;3.42;;;;;;;;;;4810052;29;20099;-82
2023/12/27 19:37:08;;;;;;;4.97;2.97;;;;;;;;;;4805221;29;20110;-82
2023/12/27 19:39:35;;;;;;;6.70;2.58;;;;;;;;;;4804770;29;20112;-82
2023/12/27 19:42:03;;;;;;;7.15;2.80;;;;;;;;;;4804366;29;20043;-82
2023/12/27 19:44:31;;;;;;;14.15;5.63;;;;;;;;;;4789080;29;20050;-82
2023/12/27 19:46:57;;;;;;;4.97;2.53;;;;;;;;;;4804615;29;20035;-82
2023/12/27 19:49:23;;;;;;;2.10;1.90;;;;;;;;;;4805703;29;20061;-82
2023/12/27 19:51:49;;;;;;;2.97;1.77;;;;;;;;;;4805098;29;20062;-82
2023/12/27 19:54:15;;;;;;;3.50;2.50;;;;;;;;;;4805401;29;20074;-82
2023/12/27 19:56:41;;;;;;;4.90;2.63;;;;;;;;;;4804671;29;20094;-82
2023/12/27 19:59:11;;;;;;;8.05;3.40;;;;;;;;;;4788735;29;20618;-82
2023/12/27 20:01:36;;;;;;;5.07;2.92;;;;;;;;;;4788547;29;20043;-82
2023/12/27 20:04:03;;;;;;;6.30;3.00;;;;;;;;;;4798062;29;20075;-82
2023/12/27 20:06:29;;;;;;;5.30;2.20;;;;;;;;;;4810029;29;20473;-82
2023/12/27 20:08:55;;;;;;;6.55;3.10;;;;;;;;;;4802496;29;20058;-82
2023/12/27 20:11:22;;;;;;;6.80;2.22;;;;;;;;;;4804502;29;20054;-82
2023/12/27 20:13:49;;;;;;;5.03;2.80;;;;;;;;;;4804539;29;20198;-82
2023/12/27 20:16:15;;;;;;;3.17;2.00;;;;;;;;;;4804826;29;20031;-81
2023/12/27 20:18:41;;;;;;;3.08;1.58;;;;;;;;;;4803493;29;20055;-82
2023/12/27 20:21:07;;;;;;;6.20;1.77;;;;;;;;;;4789423;29;20475;-82
2023/12/27 20:23:38;;;;;;;6.40;2.15;;;;;;;;;;4805050;29;20090;-81
2023/12/27 20:26:04;;;;;;;6.30;2.58;;;;;;;;;;4805167;29;20534;-81
2023/12/27 20:28:31;;;;;;;3.78;2.67;;;;;;;;;;4789128;29;20057;-82
2023/12/27 20:30:57;;;;;;;3.25;2.40;;;;;;;;;;4804839;29;20689;-82
2023/12/27 20:33:23;;;;;;;13.52;4.50;;;;;;;;;;4784443;29;20051;-82
2023/12/27 20:35:49;;;;;;;8.80;4.75;;;;;;;;;;4787970;29;20034;-82
2023/12/27 20:38:15;;;;;;;7.22;2.90;;;;;;;;;;4788486;29;20085;-82
2023/12/27 20:41:01;;;;;;;6.22;2.35;;;;;;;;;;4804495;29;20035;-82
2023/12/27 20:43:40;;;;;;;9.70;3.80;;;;;;;;;;4790953;29;20131;-83
2023/12/27 20:46:06;;;;;;;6.53;2.00;;;;;;;;;;4789980;29;20036;-82
2023/12/27 20:48:33;;;;;;;8.90;2.50;;;;;;;;;;4797254;29;20053;-82
2023/12/27 20:51:09;;;;;;;4.10;2.60;;;;;;;;;;4784035;29;20035;-82
2023/12/27 20:53:35;;;;;;;3.75;2.08;;;;;;;;;;4791415;29;20055;-81
2023/12/27 20:56:02;;;;;;;6.70;2.13;;;;;;;;;;4808583;29;20043;-81
2023/12/27 20:58:28;;;;;;;13.20;3.20;;;;;;;;;;4807781;29;20446;-81
2023/12/27 21:00:55;;;;;;;4.47;1.70;;;;;;;;;;4807806;29;20035;-81
2023/12/27 21:03:21;;;;;;;10.25;3.45;;;;;;;;;;4808501;29;20042;-82
2023/12/27 21:05:47;;;;;;;8.98;4.05;;;;;;;;;;4792051;29;20381;-82
2023/12/27 21:08:13;;;;;;;5.05;3.08;;;;;;;;;;4803651;29;20035;-82
2023/12/27 21:10:39;;;;;;;26.75;10.43;;;;;;;;;;4811597;29;20047;-82
2023/12/27 21:13:05;;;;;;;6.13;3.78;;;;;;;;;;4808071;29;20454;-81
2023/12/27 21:15:31;;;;;;;7.70;3.22;;;;;;;;;;4807708;29;20522;-81
2023/12/27 21:17:57;;;;;;;11.50;3.08;;;;;;;;;;4791359;29;20134;-81
2023/12/27 21:20:23;;;;;;;5.32;2.13;;;;;;;;;;4788818;29;20141;-81
2023/12/27 21:22:49;;;;;;;3.10;2.13;;;;;;;;;;4790223;29;20427;-82
2023/12/27 21:25:15;;;;;;;5.82;2.50;;;;;;;;;;4814143;29;20051;-81
2023/12/27 21:27:41;;;;;;;7.03;2.95;;;;;;;;;;4806440;29;20042;-81
2023/12/27 21:30:08;;;;;;;6.10;2.70;;;;;;;;;;4808411;29;20046;-81
2023/12/27 21:32:34;;;;;;;4.18;2.35;;;;;;;;;;4808272;29;20042;-81
2023/12/27 21:35:00;;;;;;;3.80;1.83;;;;;;;;;;4790915;29;20082;-81
2023/12/27 21:37:26;;;;;;;4.38;2.17;;;;;;;;;;4802807;29;20035;-81
2023/12/27 21:39:52;;;;;;;3.65;1.85;;;;;;;;;;4791508;29;20061;-81
2023/12/27 21:42:18;;;;;;;3.90;2.05;;;;;;;;;;4791492;29;20030;-81
2023/12/27 21:44:44;;;;;;;3.15;1.67;;;;;;;;;;4806572;29;20129;-82
2023/12/27 21:47:10;;;;;;;11.82;2.40;;;;;;;;;;4805496;29;20081;-82
2023/12/27 21:49:36;;;;;;;6.25;2.60;;;;;;;;;;4788804;29;20078;-82
2023/12/27 21:52:03;;;;;;;11.15;3.05;;;;;;;;;;4789348;29;20436;-81
2023/12/27 21:54:29;;;;;;;6.45;2.75;;;;;;;;;;4818888;29;20038;-81
2023/12/27 21:56:55;;;;;;;6.95;2.92;;;;;;;;;;4803060;29;20050;-81
2023/12/27 21:59:21;;;;;;;9.13;5.65;;;;;;;;;;4806639;29;20051;-81
2023/12/27 22:01:47;;;;;;;8.48;3.70;;;;;;;;;;4806575;29;20074;-81
2023/12/27 22:04:13;;;;;;;6.97;2.60;;;;;;;;;;4806071;29;20041;-81
2023/12/27 22:06:41;;;;;;;11.10;4.45;;;;;;;;;;4783004;30;20482;-81
2023/12/27 22:09:08;;;;;;;11.52;5.28;;;;;;;;;;4804543;29;20038;-81
2023/12/27 22:11:34;;;;;;;10.98;4.75;;;;;;;;;;4790464;29;20055;-82
2023/12/27 22:14:03;;;;;;;15.13;3.80;;;;;;;;;;4790546;29;20155;-81
2023/12/27 22:16:29;;;;;;;9.48;3.35;;;;;;;;;;4790179;29;20043;-81
2023/12/27 22:18:55;;;;;;;4.80;2.38;;;;;;;;;;4806077;29;20440;-81
2023/12/27 22:21:27;;;;;;;8.02;3.00;;;;;;;;;;4805973;29;20493;-81
2023/12/27 22:23:53;;;;;;;6.28;2.40;;;;;;;;;;4810710;29;20077;-81
2023/12/27 22:26:19;;;;;;;8.43;3.92;;;;;;;;;;4815701;29;20039;-81
2023/12/27 22:28:48;;;;;;;7.28;3.85;;;;;;;;;;4806671;29;20047;-81
2023/12/27 22:31:20;;;;;;;9.32;3.80;;;;;;;;;;4806303;29;20042;-81
2023/12/27 22:33:46;;;;;;;17.02;7.05;;;;;;;;;;4790283;29;20045;-81
2023/12/27 22:36:14;;;;;;;13.50;5.22;;;;;;;;;;4784072;30;20047;-81
2023/12/27 22:38:40;;;;;;;13.38;4.57;;;;;;;;;;4773170;29;20058;-81
2023/12/27 22:41:06;;;;;;;15.32;3.92;;;;;;;;;;4789637;29;20050;-81
2023/12/27 22:43:34;;;;;;;7.25;4.43;;;;;;;;;;4807111;29;20046;-81
2023/12/27 22:46:00;;;;;;;10.85;4.38;;;;;;;;;;4792385;29;20039;-80
2023/12/27 22:48:27;;;;;;;17.35;5.30;;;;;;;;;;4790018;29;20043;-81
2023/12/27 22:50:53;;;;;;;14.00;4.90;;;;;;;;;;4796729;29;20087;-81
2023/12/27 22:53:19;;;;;;;14.20;3.75;;;;;;;;;;4789602;29;20124;-81
2023/12/27 22:55:45;;;;;;;5.68;2.33;;;;;;;;;;4790056;29;20038;-81
2023/12/27 22:58:11;;;;;;;5.55;2.08;;;;;;;;;;4789342;29;20043;-82
2023/12/27 23:00:40;;;;;;;13.73;3.22;;;;;;;;;;4788935;29;20039;-82
2023/12/27 23:03:11;;;;;;;5.57;3.20;;;;;;;;;;4789877;29;20042;-82
2023/12/27 23:05:41;;;;;;;3.58;1.67;;;;;;;;;;4797375;29;20054;-82
2023/12/27 23:08:07;;;;;;;5.90;2.92;;;;;;;;;;4790193;29;20049;-82
2023/12/27 23:13:28;;;;;;;12.00;2.53;;;;;;;;;;4802742;29;20043;-82
2023/12/27 23:15:59;;;;;;;10.48;3.47;;;;;;;;;;4805183;29;20046;-82
2023/12/27 23:18:32;;;;;;;21.65;4.88;;;;;;;;;;4805278;29;20047;-83
2023/12/27 23:21:02;;;;;;;13.52;6.45;;;;;;;;;;4789006;29;20814;-82
2023/12/27 23:23:32;;;;;;;17.55;5.60;;;;;;;;;;4788705;29;20058;-83
2023/12/27 23:25:59;;;;;;;12.68;6.00;;;;;;;;;;4788927;29;20379;-82
2023/12/27 23:28:28;;;;;;;10.32;4.43;;;;;;;;;;4788737;29;20700;-82
2023/12/27 23:30:57;;;;;;;19.40;6.88;;;;;;;;;;4788382;29;20090;-82
2023/12/27 23:33:25;;;;;;;34.10;10.02;;;;;;;;;;4791163;29;20042;-82
2023/12/27 23:35:57;;;;;;;18.15;7.13;;;;;;;;;;4807138;29;20042;-82
2023/12/27 23:38:27;;;;;;;21.40;7.30;;;;;;;;;;4789251;29;20042;-82
2023/12/27 23:40:56;;;;;;;13.30;5.72;;;;;;;;;;4805283;29;20047;-82
2023/12/27 23:43:24;;;;;;;13.07;5.25;;;;;;;;;;4788852;29;20046;-81
2023/12/27 23:45:50;;;;;;;29.88;7.70;;;;;;;;;;4788653;29;20051;-81
2023/12/27 23:48:17;;;;;;;23.13;9.45;;;;;;;;;;4789764;29;20043;-81
2023/12/27 23:50:43;;;;;;;23.83;11.35;;;;;;;;;;4816220;29;20113;-81
2023/12/27 23:53:09;;;;;;;43.33;11.13;;;;;;;;;;4788818;29;20039;-81
2023/12/27 23:55:35;;;;;;;28.88;12.98;;;;;;;;;;4789717;29;20047;-81
2023/12/27 23:58:01;;;;;;;27.67;12.07;;;;;;;;;;4804910;29;20043;-81
